Thorndike, ME (04986)

7:41 AM EST on January 28, 2015 (GMT -0500)
APRSWXNET Knox ME US | Change Station
CLOSE
Current Station
Personal Weather Station
Location: Brooks, ME
Elevation: 1056 ft
Nearby Weather Stations

Elev 1056 ft 44.52 °N, 69.20 °W | Updated 42 minutes ago

Overcast
Overcast
8 °F
Feels Like -7 °F
N
12
Wind Variable Wind from NNW
Gusts 0.0 mph

Today
High -- | Low -- °F
--% Chance of Precip.
Yesterday
High -- | Low -- °F
Precip. -- in
7:00 AM 4:40 PM
Waxing Gibbous, 64% visible
Pressure 29.77 in
Visibility 10.0 miles
Clouds Overcast 3200 ft
Windchill -7 °F
Dew Point 6 °F
Humidity 90%
Rainfall -999.00 in
Snow Depth Not available.
UV 0 out of 12
Pollen .10 out of 12
Air Quality Not available.
Flu Activity Not available.
METAR KWVL 281235Z 33017G24KT 10SM OVC032 M11/M13 A2977 RMK AO1

More Conditions Fewer Conditions

Pressure 29.77 in
Visibility 10.0 miles
Clouds Overcast 3200 ft
Windchill -7 °F
Dew Point 6 °F
Humidity 90%
Rainfall -999.00 in
Snow Depth Not available.
UV 0 out of 12
Pollen .10 out of 12
Air Quality Not available.
Flu Activity Not available.
METAR KWVL 281235Z 33017G24KT 10SM OVC032 M11/M13 A2977 RMK AO1

More Conditions Fewer Conditions

10-Day Weather Forecast

Almanac

Astronomy

Jan. 28, 2015 Rise Set
Actual Time
Civil Twilight
Nautical Twilight
Astronomical Twilight
Moon
Length of Visible Light
Length of Day
Tomorrow will be .
, % of the Moon is Illuminated

Today's Extremes

State Highs State Lows

Community

WunderPhotos

Upload Photos

1,791,133 photos uploaded!

WunderBlogs® & News

Nearby

Air Quality

  Air Quality AQ Index Pollutant
Not available.

Snow Depth

Station Depth Elevation

Earthquake Activity

City Distance Mag. Time & Date
Minimum magnitude displayed is 2.5.

Coastal Water Temperatures

Place Temperature

Nearby Weather Stations